Nearby METAR Reports

 

KTOP - Billard Municipal Airport, Topeka, Kansas, USA
Updated: 05/25/2020 10:53am
Light rain, Overcast
Light rain, Overcast
 Wind from SE
Wind: SE 5 mph , 7 km/h
Temperature: 72°F , 22°C
Dew Point: 64°F , 18°C
Humidity: 78%
Barometer: 1010.5 hPa
Summary: Light rain
Clouds: Overcast
Visibility: 10 miles , 16 km
Cloud details: Overcast 7500 ft
2020/05/25 15:53 KTOP 251553Z 14004KT 10SM -RA OVC075 22/18 A2984 RMK AO2 RAB23 SLP098 P0000 T02220183
KFOE - Forbes Field Airport, Topeka, Kansas, USA
Updated: 05/25/2020 10:53am
Light rain, Overcast
Light rain, Overcast
 Wind from S
Wind: S 7 mph , 11 km/h
Temperature: 72°F , 22°C
Dew Point: 66°F , 19°C
Humidity: 83%
Barometer: 1010.8 hPa
Summary: Light rain
Clouds: Overcast
Visibility: 10 miles , 16 km
Cloud details: Overcast 7000 ft
2020/05/25 15:53 KFOE 251553Z 17006KT 10SM -RA OVC070 22/19 A2985 RMK AO2 RAB42 SLP099 P0001 T02220194